createdAt,value
2023-05-19T00:00:24.838Z,93.00
2023-05-19T00:01:28.327Z,92.76
2023-05-19T00:02:33.690Z,92.74
2023-05-19T00:03:40.501Z,92.98
2023-05-19T00:04:42.924Z,93.12
2023-05-19T00:05:46.207Z,93.34
2023-05-19T00:06:51.650Z,93.56
2023-05-19T00:07:54.518Z,93.34
2023-05-19T00:09:15.606Z,93.35
2023-05-19T00:10:18.448Z,93.75
2023-05-19T00:11:22.460Z,93.62
2023-05-19T00:12:24.901Z,93.58
2023-05-19T00:13:27.558Z,93.50
2023-05-19T00:14:30.021Z,93.61
2023-05-19T00:15:32.559Z,93.46
2023-05-19T00:16:36.212Z,93.38
2023-05-19T00:17:38.493Z,93.67
2023-05-19T00:18:40.789Z,93.63
2023-05-19T00:19:45.232Z,94.31
2023-05-19T00:20:47.467Z,94.18
2023-05-19T00:21:49.712Z,93.67
2023-05-19T00:22:51.923Z,93.46
2023-05-19T00:23:54.275Z,93.05
2023-05-19T00:24:56.571Z,93.20
2023-05-19T00:25:58.685Z,92.51
2023-05-19T00:27:00.857Z,92.90
2023-05-19T00:28:03.266Z,93.45
2023-05-19T00:29:05.715Z,92.85
2023-05-19T00:30:08.464Z,92.60
2023-05-19T00:31:10.704Z,92.03
2023-05-19T00:32:12.975Z,92.13
2023-05-19T00:33:15.330Z,92.81
2023-05-19T00:34:17.515Z,93.38
2023-05-19T00:35:20.297Z,93.96
2023-05-19T00:36:22.481Z,94.07
2023-05-19T00:37:24.698Z,94.16
2023-05-19T00:38:26.910Z,94.27
2023-05-19T00:39:29.065Z,94.04
2023-05-19T00:40:31.592Z,94.00
2023-05-19T00:41:33.955Z,93.96
2023-05-19T00:42:36.207Z,94.04
2023-05-19T00:43:38.454Z,93.89
2023-05-19T00:44:41.811Z,93.89
2023-05-19T00:45:44.556Z,94.11
2023-05-19T00:46:46.772Z,93.82
2023-05-19T00:47:49.662Z,93.58
2023-05-19T00:48:51.887Z,93.91
2023-05-19T00:49:54.044Z,93.96
2023-05-19T00:51:02.377Z,93.76
2023-05-19T00:52:06.296Z,94.15
2023-05-19T00:53:08.534Z,94.61
2023-05-19T00:54:10.817Z,94.54
2023-05-19T00:55:14.151Z,94.31
2023-05-19T00:56:16.896Z,94.57
2023-05-19T00:57:19.287Z,94.42
2023-05-19T00:58:21.600Z,94.03
2023-05-19T00:59:23.914Z,94.22
2023-05-19T01:00:26.117Z,94.21
2023-05-19T01:01:28.607Z,94.37
2023-05-19T01:02:32.471Z,94.61
2023-05-19T01:03:35.676Z,94.38
2023-05-19T01:04:38.319Z,94.23
2023-05-19T01:05:42.079Z,94.60
2023-05-19T01:06:44.333Z,94.72
2023-05-19T01:07:47.426Z,95.07
2023-05-19T01:08:51.513Z,95.44
2023-05-19T01:09:53.833Z,95.44
2023-05-19T01:10:56.030Z,95.55
2023-05-19T01:11:58.942Z,95.54
2023-05-19T01:13:03.109Z,94.83
2023-05-19T01:14:05.380Z,93.86
2023-05-19T01:15:07.986Z,93.54
2023-05-19T01:16:22.374Z,93.58
2023-05-19T01:17:40.505Z,93.51
2023-05-19T01:19:02.377Z,93.31
2023-05-19T01:20:27.628Z,93.20
2023-05-19T01:21:45.321Z,93.94
2023-05-19T01:23:05.772Z,94.16
2023-05-19T01:24:23.040Z,94.14
2023-05-19T01:25:37.479Z,94.45
2023-05-19T01:27:01.063Z,94.45
2023-05-19T01:28:39.685Z,94.81
2023-05-19T01:29:44.817Z,94.43
2023-05-19T01:30:53.102Z,94.47
2023-05-19T01:31:55.892Z,93.84
2023-05-19T01:33:03.273Z,94.01
2023-05-19T01:34:06.366Z,93.97
2023-05-19T01:35:10.027Z,94.03
2023-05-19T01:36:12.541Z,94.19
2023-05-19T01:37:15.436Z,94.23
2023-05-19T01:38:19.293Z,94.38
2023-05-19T01:39:22.166Z,94.29
2023-05-19T01:40:25.389Z,94.58
2023-05-19T01:41:28.578Z,94.60
2023-05-19T01:42:37.280Z,94.58
2023-05-19T01:43:40.761Z,94.65
2023-05-19T01:44:43.006Z,94.77
2023-05-19T01:45:45.878Z,94.88
2023-05-19T01:46:48.994Z,94.86
2023-05-19T01:47:55.063Z,94.99
2023-05-19T01:48:58.038Z,94.37
2023-05-19T01:50:00.817Z,94.25
2023-05-19T01:51:03.092Z,94.05
2023-05-19T01:52:05.638Z,93.58
2023-05-19T01:53:08.129Z,93.86
2023-05-19T01:54:10.481Z,93.90
2023-05-19T01:55:12.875Z,94.18
2023-05-19T01:56:17.469Z,93.83
2023-05-19T01:57:28.146Z,93.64
2023-05-19T01:58:53.439Z,93.88
2023-05-19T02:00:21.691Z,93.90
2023-05-19T02:01:51.504Z,94.08
2023-05-19T02:03:15.906Z,94.03
2023-05-19T02:04:44.258Z,94.07
2023-05-19T02:06:07.094Z,94.14
2023-05-19T02:07:21.274Z,94.45
2023-05-19T02:08:47.740Z,94.35
2023-05-19T02:10:05.720Z,94.64
2023-05-19T02:11:14.875Z,94.81
2023-05-19T02:12:28.344Z,95.10
2023-05-19T02:13:33.690Z,94.83
2023-05-19T02:14:42.025Z,94.60
2023-05-19T02:15:45.626Z,94.67
2023-05-19T02:16:48.789Z,94.48
2023-05-19T02:17:54.428Z,94.71
2023-05-19T02:18:59.318Z,94.12
2023-05-19T02:20:02.252Z,94.03
2023-05-19T02:21:04.544Z,93.92
2023-05-19T02:22:06.857Z,94.25
2023-05-19T02:23:09.039Z,94.16
2023-05-19T02:24:11.175Z,94.54
2023-05-19T02:25:13.427Z,94.51
2023-05-19T02:26:15.638Z,94.88
2023-05-19T02:27:18.657Z,95.30
2023-05-19T02:28:20.793Z,95.25
2023-05-19T02:29:22.967Z,95.10
2023-05-19T02:30:25.429Z,95.46
2023-05-19T02:31:27.628Z,95.60
2023-05-19T02:32:29.807Z,95.38
2023-05-19T02:33:32.440Z,95.25
2023-05-19T02:34:34.655Z,95.28
2023-05-19T02:35:37.303Z,94.88
2023-05-19T02:36:43.566Z,95.04
2023-05-19T02:37:46.064Z,94.37
2023-05-19T02:38:48.204Z,94.00
2023-05-19T02:39:50.470Z,94.84
2023-05-19T02:40:55.651Z,94.95
2023-05-19T02:41:57.772Z,95.43
2023-05-19T02:43:00.137Z,95.55
2023-05-19T02:44:02.331Z,95.35
2023-05-19T02:45:04.957Z,95.67
2023-05-19T02:46:07.114Z,95.61
2023-05-19T02:47:09.274Z,95.43
2023-05-19T02:48:11.469Z,95.46
2023-05-19T02:49:14.685Z,95.52
2023-05-19T02:50:16.926Z,95.81
2023-05-19T02:51:19.151Z,95.75
2023-05-19T02:52:21.261Z,95.62
2023-05-19T02:53:23.472Z,95.92
2023-05-19T02:54:25.737Z,95.73
2023-05-19T02:55:28.081Z,95.59
2023-05-19T02:56:30.249Z,95.49
2023-05-19T02:57:33.326Z,95.43
2023-05-19T02:58:35.492Z,95.66
2023-05-19T02:59:37.697Z,95.57
2023-05-19T03:00:39.895Z,95.74
2023-05-19T03:01:42.120Z,95.89
2023-05-19T03:02:44.468Z,95.87
2023-05-19T03:03:47.093Z,95.99
2023-05-19T03:04:49.462Z,96.16
2023-05-19T03:05:51.907Z,96.13
2023-05-19T03:06:57.801Z,96.15
2023-05-19T03:08:00.148Z,96.28
2023-05-19T03:09:02.302Z,96.43
2023-05-19T03:10:06.608Z,96.42
2023-05-19T03:11:08.864Z,96.19
2023-05-19T03:12:11.060Z,96.32
2023-05-19T03:13:13.222Z,96.27
2023-05-19T03:14:15.387Z,96.09
2023-05-19T03:15:18.793Z,95.92
2023-05-19T03:16:22.055Z,95.76
2023-05-19T03:17:24.384Z,95.57
2023-05-19T03:18:26.786Z,95.63
2023-05-19T03:19:29.268Z,95.84
2023-05-19T03:20:31.656Z,95.50
2023-05-19T03:21:34.607Z,95.94
2023-05-19T03:22:36.889Z,95.78
2023-05-19T03:23:39.075Z,95.71
2023-05-19T03:24:41.331Z,95.62
2023-05-19T03:25:43.483Z,95.86
2023-05-19T03:26:46.047Z,96.10
2023-05-19T03:27:48.323Z,95.79
2023-05-19T03:28:50.853Z,96.09
2023-05-19T03:29:53.934Z,95.85
2023-05-19T03:30:56.100Z,95.62
2023-05-19T03:31:58.324Z,95.53
2023-05-19T03:33:01.832Z,95.40
2023-05-19T03:34:04.066Z,95.40
2023-05-19T03:35:06.951Z,94.90
2023-05-19T03:36:09.188Z,95.30
2023-05-19T03:37:11.344Z,95.07
2023-05-19T03:38:13.665Z,94.95
2023-05-19T03:39:16.885Z,94.73
2023-05-19T03:40:19.134Z,94.56
2023-05-19T03:41:21.403Z,94.73
2023-05-19T03:42:23.592Z,94.96
2023-05-19T03:43:25.734Z,94.88
2023-05-19T03:44:27.900Z,94.96
2023-05-19T03:45:30.141Z,95.09
2023-05-19T03:46:32.315Z,94.70
2023-05-19T03:47:34.587Z,94.26
2023-05-19T03:48:36.817Z,94.19
2023-05-19T03:49:38.997Z,93.94
2023-05-19T03:50:41.152Z,93.97
2023-05-19T03:51:44.349Z,93.76
2023-05-19T03:52:48.165Z,93.58
2023-05-19T03:53:50.365Z,93.43
2023-05-19T03:54:53.072Z,92.92
2023-05-19T03:55:56.726Z,93.13
2023-05-19T03:56:58.917Z,92.61
2023-05-19T03:58:01.297Z,92.69
2023-05-19T03:59:06.189Z,92.74
2023-05-19T04:00:11.292Z,93.28
2023-05-19T04:01:13.597Z,93.44
2023-05-19T04:02:16.747Z,93.34
2023-05-19T04:03:19.188Z,93.07
2023-05-19T04:04:21.852Z,93.31
2023-05-19T04:05:24.076Z,92.92
2023-05-19T04:06:26.288Z,92.36
2023-05-19T04:07:28.421Z,92.23
2023-05-19T04:08:30.615Z,91.37
2023-05-19T04:09:35.259Z,90.75
2023-05-19T04:10:37.449Z,91.03
2023-05-19T04:11:40.462Z,91.14
2023-05-19T04:12:42.712Z,91.10
2023-05-19T04:13:45.326Z,90.87
2023-05-19T04:14:47.560Z,90.87
2023-05-19T04:15:49.816Z,90.65
2023-05-19T04:16:52.253Z,90.59
2023-05-19T04:17:54.419Z,90.35
2023-05-19T04:18:56.854Z,90.43
2023-05-19T04:19:59.019Z,90.54
2023-05-19T04:21:01.865Z,90.74
2023-05-19T04:22:04.144Z,90.64
2023-05-19T04:23:06.301Z,90.83
2023-05-19T04:24:08.615Z,90.90
2023-05-19T04:25:10.885Z,90.92
2023-05-19T04:26:14.812Z,91.42
2023-05-19T04:27:17.962Z,91.74
2023-05-19T04:28:20.386Z,91.77
2023-05-19T04:29:23.989Z,91.82
2023-05-19T04:30:26.158Z,92.24
2023-05-19T04:31:28.708Z,92.21
2023-05-19T04:32:31.116Z,91.74
2023-05-19T04:33:34.082Z,91.24
2023-05-19T04:34:40.189Z,90.99
2023-05-19T04:35:43.881Z,90.78
2023-05-19T04:36:46.094Z,90.49
2023-05-19T04:37:48.571Z,89.90
2023-05-19T04:38:54.888Z,89.59
2023-05-19T04:39:57.218Z,88.92
2023-05-19T04:41:01.284Z,88.17
2023-05-19T04:42:03.534Z,88.18
2023-05-19T04:43:07.348Z,87.24
2023-05-19T04:44:09.567Z,86.10
2023-05-19T04:45:13.922Z,85.94
2023-05-19T04:46:16.175Z,85.94
2023-05-19T04:47:19.292Z,86.23
2023-05-19T04:48:21.825Z,86.64
2023-05-19T04:49:24.480Z,86.76
2023-05-19T04:50:28.637Z,87.04
2023-05-19T04:51:31.582Z,85.33
2023-05-19T04:52:33.944Z,84.50
2023-05-19T04:53:36.711Z,85.30
2023-05-19T04:54:39.702Z,84.71
2023-05-19T04:55:41.840Z,84.81
2023-05-19T04:56:44.020Z,85.08
2023-05-19T04:57:47.041Z,85.37
2023-05-19T04:58:49.676Z,84.44
2023-05-19T04:59:52.272Z,84.84
2023-05-19T05:01:00.498Z,85.82
2023-05-19T05:02:02.866Z,85.86
2023-05-19T05:03:05.945Z,84.85
2023-05-19T05:04:08.237Z,83.94
2023-05-19T05:05:10.442Z,84.55
2023-05-19T05:06:12.653Z,84.60
2023-05-19T05:07:14.782Z,83.71
2023-05-19T05:08:22.961Z,82.87
2023-05-19T05:09:25.208Z,82.54
2023-05-19T05:10:27.492Z,82.04
2023-05-19T05:11:29.968Z,81.50
2023-05-19T05:12:32.541Z,81.21
2023-05-19T05:13:35.359Z,82.78
2023-05-19T05:14:37.815Z,82.25
2023-05-19T05:15:40.146Z,82.10
2023-05-19T05:16:42.876Z,81.68
2023-05-19T05:17:45.344Z,82.29
2023-05-19T05:18:47.898Z,82.51
2023-05-19T05:19:50.332Z,81.59
2023-05-19T05:20:53.458Z,81.05
2023-05-19T05:21:56.024Z,81.21
2023-05-19T05:22:58.780Z,81.78
2023-05-19T05:24:01.317Z,82.26
2023-05-19T05:25:03.868Z,82.13
2023-05-19T05:26:11.536Z,82.01
2023-05-19T05:27:14.571Z,81.37
2023-05-19T05:28:16.845Z,81.17
2023-05-19T05:29:19.948Z,81.43
2023-05-19T05:30:22.156Z,81.02
2023-05-19T05:31:24.355Z,81.63
2023-05-19T05:32:26.585Z,81.06
2023-05-19T05:33:28.877Z,79.88
2023-05-19T05:34:32.008Z,79.24
2023-05-19T05:35:34.333Z,78.83
2023-05-19T05:36:36.684Z,79.19
2023-05-19T05:37:38.943Z,79.49
2023-05-19T05:38:41.175Z,79.80
2023-05-19T05:39:43.344Z,78.25
2023-05-19T05:40:45.582Z,78.55
2023-05-19T05:41:47.739Z,78.58
2023-05-19T05:42:49.952Z,78.27
2023-05-19T05:43:52.161Z,78.78
2023-05-19T05:44:54.373Z,78.80
2023-05-19T05:45:59.443Z,78.15
2023-05-19T05:47:03.027Z,77.45
2023-05-19T05:48:05.738Z,78.54
2023-05-19T05:49:08.459Z,80.29
2023-05-19T05:50:11.373Z,79.16
2023-05-19T05:51:13.794Z,77.59
2023-05-19T05:52:17.982Z,77.70
2023-05-19T05:53:21.470Z,78.89
2023-05-19T05:54:25.001Z,80.12
2023-05-19T05:55:27.692Z,79.62
2023-05-19T05:56:30.111Z,79.35
2023-05-19T05:57:35.278Z,79.38
2023-05-19T05:58:37.909Z,79.41
2023-05-19T05:59:41.055Z,78.52
2023-05-19T06:00:43.604Z,78.81
2023-05-19T06:01:46.190Z,78.43
2023-05-19T06:02:50.707Z,79.26
2023-05-19T06:03:52.883Z,79.48
2023-05-19T06:04:55.193Z,79.72
2023-05-19T06:05:57.671Z,79.36
2023-05-19T06:07:01.822Z,79.16
2023-05-19T06:08:04.739Z,78.19
2023-05-19T06:09:07.240Z,79.27
2023-05-19T06:10:10.176Z,78.38
2023-05-19T06:11:12.387Z,78.71
2023-05-19T06:12:14.529Z,78.36
2023-05-19T06:13:22.302Z,78.05
2023-05-19T06:14:24.505Z,79.29
2023-05-19T06:15:26.877Z,78.95
2023-05-19T06:16:29.151Z,78.85
2023-05-19T06:17:31.422Z,78.88
2023-05-19T06:18:33.677Z,79.21
2023-05-19T06:19:35.880Z,79.47
2023-05-19T06:20:38.051Z,79.79
2023-05-19T06:21:40.228Z,79.20
2023-05-19T06:22:42.499Z,79.07
2023-05-19T06:23:44.856Z,80.50
2023-05-19T06:24:47.064Z,78.89
2023-05-19T06:25:49.231Z,80.46
2023-05-19T06:26:51.362Z,79.87
2023-05-19T06:27:53.507Z,78.52
2023-05-19T06:28:55.688Z,77.50
2023-05-19T06:29:57.917Z,76.57
2023-05-19T06:31:00.297Z,75.89
2023-05-19T06:32:02.561Z,76.83
2023-05-19T06:33:04.855Z,76.19
2023-05-19T06:34:07.070Z,76.72
2023-05-19T06:35:09.525Z,76.12
2023-05-19T06:36:12.129Z,76.33
2023-05-19T06:37:17.043Z,77.00
2023-05-19T06:38:19.186Z,76.74
2023-05-19T06:39:21.325Z,76.81
2023-05-19T06:40:23.855Z,77.26
2023-05-19T06:41:26.291Z,77.55
2023-05-19T06:42:28.489Z,78.06
2023-05-19T06:43:30.758Z,76.10
2023-05-19T06:44:33.037Z,75.00
2023-05-19T06:45:35.379Z,75.79
2023-05-19T06:46:37.742Z,75.72
2023-05-19T06:47:42.500Z,74.73
2023-05-19T06:48:44.772Z,75.06
2023-05-19T06:49:50.666Z,74.95
2023-05-19T06:50:52.885Z,74.81
2023-05-19T06:51:55.053Z,75.01
2023-05-19T06:52:58.481Z,75.81
2023-05-19T06:54:00.644Z,75.20
2023-05-19T06:55:02.837Z,75.56
2023-05-19T06:56:05.313Z,74.52
2023-05-19T06:57:07.499Z,75.24
2023-05-19T06:58:09.651Z,73.78
2023-05-19T06:59:12.499Z,73.93
2023-05-19T07:00:17.959Z,74.39
2023-05-19T07:01:21.859Z,74.44
2023-05-19T07:02:24.276Z,72.47
2023-05-19T07:03:27.323Z,71.74
2023-05-19T07:04:29.723Z,71.80
2023-05-19T07:05:31.856Z,70.64
2023-05-19T07:06:34.037Z,69.92
2023-05-19T07:07:40.647Z,69.47
2023-05-19T07:08:43.242Z,69.81
2023-05-19T07:09:46.344Z,70.21
2023-05-19T07:10:48.758Z,68.62
2023-05-19T07:11:51.303Z,69.11
2023-05-19T07:12:54.043Z,67.89
2023-05-19T07:13:56.782Z,69.72
2023-05-19T07:14:58.966Z,67.99
2023-05-19T07:16:01.161Z,67.48
2023-05-19T07:17:03.469Z,67.64
2023-05-19T07:18:05.666Z,67.04
2023-05-19T07:19:07.896Z,67.23
2023-05-19T07:20:10.367Z,66.54
2023-05-19T07:21:12.469Z,66.07
2023-05-19T07:22:14.959Z,65.92
2023-05-19T07:23:17.554Z,65.10
2023-05-19T07:24:21.458Z,64.07
2023-05-19T07:25:23.837Z,64.47
2023-05-19T07:26:26.776Z,64.74
2023-05-19T07:27:28.943Z,63.53
2023-05-19T07:28:31.145Z,63.35
2023-05-19T07:29:33.263Z,63.02
2023-05-19T07:30:35.617Z,63.84
2023-05-19T07:31:37.977Z,63.50
2023-05-19T07:32:40.176Z,63.87
2023-05-19T07:33:42.326Z,64.47
2023-05-19T07:34:44.472Z,63.38
2023-05-19T07:35:46.737Z,64.27
2023-05-19T07:36:49.161Z,64.96
2023-05-19T07:37:52.551Z,65.43
2023-05-19T07:38:54.796Z,65.08
2023-05-19T07:39:57.096Z,64.66
2023-05-19T07:40:59.315Z,64.93
2023-05-19T07:42:01.914Z,64.01
2023-05-19T07:43:04.156Z,63.10
2023-05-19T07:44:07.821Z,63.81
2023-05-19T07:45:10.890Z,62.63
2023-05-19T07:46:13.076Z,62.45
2023-05-19T07:47:15.269Z,61.86
2023-05-19T07:48:18.913Z,61.18
2023-05-19T07:49:21.141Z,59.91
2023-05-19T07:50:23.428Z,60.06
2023-05-19T07:51:25.631Z,59.98
2023-05-19T07:52:27.812Z,60.26
2023-05-19T07:53:30.041Z,61.06
2023-05-19T07:54:32.248Z,61.11
2023-05-19T07:55:34.450Z,60.31
2023-05-19T07:56:36.631Z,60.25
2023-05-19T07:57:38.840Z,61.04
2023-05-19T07:58:41.018Z,61.06
2023-05-19T07:59:43.190Z,61.46
2023-05-19T08:00:46.184Z,60.73
2023-05-19T08:01:48.488Z,60.96
2023-05-19T08:02:50.783Z,61.03
2023-05-19T08:03:53.331Z,60.73
2023-05-19T08:04:56.723Z,61.02
2023-05-19T08:05:59.079Z,62.03
2023-05-19T08:07:01.227Z,62.10
2023-05-19T08:08:03.597Z,61.16
2023-05-19T08:09:05.863Z,58.68
2023-05-19T08:10:08.262Z,58.64
2023-05-19T08:11:10.462Z,59.47
2023-05-19T08:12:12.638Z,59.65
2023-05-19T08:13:14.820Z,59.79
2023-05-19T08:14:17.167Z,59.60
2023-05-19T08:15:19.691Z,59.97
2023-05-19T08:16:21.988Z,60.82
2023-05-19T08:17:24.154Z,60.28
2023-05-19T08:18:26.900Z,57.81
2023-05-19T08:19:29.199Z,57.02
2023-05-19T08:20:31.891Z,56.04
2023-05-19T08:21:34.712Z,56.06
2023-05-19T08:22:37.111Z,55.53
2023-05-19T08:23:39.359Z,55.72
2023-05-19T08:24:43.348Z,56.12
2023-05-19T08:25:45.739Z,55.56
2023-05-19T08:26:47.909Z,54.76
2023-05-19T08:27:50.079Z,54.22
2023-05-19T08:28:52.280Z,54.81
2023-05-19T08:29:55.406Z,54.06
2023-05-19T08:30:57.612Z,53.99
2023-05-19T08:32:00.436Z,53.65
2023-05-19T08:33:02.820Z,54.24
2023-05-19T08:34:05.005Z,54.21
2023-05-19T08:35:07.751Z,55.73
2023-05-19T08:36:09.900Z,57.87
2023-05-19T08:37:12.099Z,59.62
2023-05-19T08:38:14.280Z,59.35
2023-05-19T08:39:18.322Z,58.77
2023-05-19T08:40:20.648Z,58.67
2023-05-19T08:41:23.376Z,59.53
2023-05-19T08:42:25.784Z,59.13
2023-05-19T08:43:28.075Z,57.04
2023-05-19T08:44:31.300Z,56.40
2023-05-19T08:45:34.660Z,55.04
2023-05-19T08:46:37.179Z,55.51
2023-05-19T08:47:41.719Z,55.24
2023-05-19T08:48:44.443Z,52.13
2023-05-19T08:49:47.517Z,51.37
2023-05-19T08:51:03.555Z,52.08
2023-05-19T08:52:27.419Z,53.02
2023-05-19T08:53:36.846Z,54.63
2023-05-19T08:54:46.936Z,54.02
2023-05-19T08:56:11.177Z,55.02
2023-05-19T08:57:13.730Z,54.83
2023-05-19T08:58:20.362Z,54.41
2023-05-19T08:59:22.890Z,54.12
2023-05-19T09:00:25.546Z,53.95
2023-05-19T09:01:28.925Z,54.01
2023-05-19T09:02:31.270Z,53.79
2023-05-19T09:03:38.181Z,53.19
2023-05-19T09:04:40.788Z,55.38
2023-05-19T09:05:43.154Z,55.17
2023-05-19T09:06:45.604Z,54.54
2023-05-19T09:07:48.395Z,56.72
2023-05-19T09:08:50.530Z,55.52
2023-05-19T09:09:52.812Z,55.59
2023-05-19T09:10:54.995Z,56.12
2023-05-19T09:11:57.705Z,55.60
2023-05-19T09:12:59.909Z,56.09
2023-05-19T09:14:02.192Z,55.85
2023-05-19T09:15:04.803Z,56.65
2023-05-19T09:16:08.284Z,56.31
2023-05-19T09:17:10.725Z,56.94
2023-05-19T09:18:14.437Z,56.41
2023-05-19T09:19:17.162Z,55.11
2023-05-19T09:20:19.447Z,57.07
2023-05-19T09:21:31.140Z,56.92
2023-05-19T09:22:35.919Z,52.58
2023-05-19T09:23:38.135Z,52.98
2023-05-19T09:24:40.747Z,54.15
2023-05-19T09:25:49.979Z,54.51
2023-05-19T09:26:57.001Z,55.12
2023-05-19T09:28:00.127Z,54.23
2023-05-19T09:29:02.376Z,54.52
2023-05-19T09:30:09.301Z,54.49
2023-05-19T09:31:11.566Z,53.60
2023-05-19T09:32:25.024Z,53.01
2023-05-19T09:33:28.609Z,48.73
2023-05-19T09:34:31.207Z,46.76
2023-05-19T09:35:34.789Z,49.29
2023-05-19T09:36:39.911Z,47.73
2023-05-19T09:37:42.849Z,47.91
2023-05-19T09:38:45.721Z,48.88
2023-05-19T09:39:52.069Z,48.27
2023-05-19T09:40:59.510Z,47.49
2023-05-19T09:42:04.656Z,49.18
2023-05-19T09:43:08.120Z,48.30
2023-05-19T09:44:23.772Z,49.91
2023-05-19T09:45:27.321Z,49.73
2023-05-19T09:46:30.320Z,49.22
2023-05-19T09:47:36.994Z,49.92
2023-05-19T09:48:39.181Z,49.44
2023-05-19T09:49:46.859Z,50.45
2023-05-19T09:50:49.334Z,50.92
2023-05-19T09:51:54.726Z,51.33
2023-05-19T09:52:57.021Z,50.72
2023-05-19T09:53:59.601Z,49.11
2023-05-19T09:55:03.958Z,46.72
2023-05-19T09:56:07.349Z,47.63
2023-05-19T09:57:09.604Z,45.99
2023-05-19T09:58:16.983Z,46.30
2023-05-19T09:59:19.439Z,45.43
2023-05-19T10:00:22.992Z,46.92
2023-05-19T10:01:25.697Z,47.10
2023-05-19T10:02:28.574Z,43.00
2023-05-19T10:03:33.060Z,42.41
2023-05-19T10:04:36.414Z,42.94
2023-05-19T10:05:38.747Z,42.40
2023-05-19T10:06:41.581Z,40.82
2023-05-19T10:07:51.569Z,40.08
2023-05-19T10:08:54.736Z,39.46
2023-05-19T10:09:58.697Z,38.53
2023-05-19T10:11:01.199Z,39.06
2023-05-19T10:12:03.767Z,38.78
2023-05-19T10:13:06.372Z,38.36
2023-05-19T10:14:08.581Z,39.60
2023-05-19T10:15:15.230Z,40.15
2023-05-19T10:16:17.604Z,40.24
2023-05-19T10:17:19.938Z,37.19
2023-05-19T10:18:23.144Z,38.05
2023-05-19T10:19:28.861Z,38.58
2023-05-19T10:20:31.891Z,36.23
2023-05-19T10:21:34.175Z,35.66
2023-05-19T10:22:37.205Z,35.69
2023-05-19T10:23:39.469Z,34.77
2023-05-19T10:24:41.706Z,35.06
2023-05-19T10:25:44.324Z,35.29
2023-05-19T10:26:53.219Z,34.85
2023-05-19T10:27:58.109Z,35.51
2023-05-19T10:29:00.626Z,35.08
2023-05-19T10:30:16.811Z,38.02
2023-05-19T10:31:21.919Z,38.36
2023-05-19T10:32:27.273Z,41.90
2023-05-19T10:33:55.069Z,41.16
2023-05-19T10:35:07.578Z,43.23
2023-05-19T10:36:35.543Z,44.40
2023-05-19T10:37:45.562Z,44.35
2023-05-19T10:38:52.043Z,42.98
2023-05-19T10:39:55.657Z,41.45
2023-05-19T10:41:02.334Z,41.41
2023-05-19T10:42:15.945Z,39.87
2023-05-19T10:43:20.951Z,38.27
2023-05-19T10:44:40.524Z,36.99
2023-05-19T10:45:49.635Z,36.01
2023-05-19T10:46:52.548Z,35.27
2023-05-19T10:47:56.543Z,37.47
2023-05-19T10:48:59.520Z,35.81
2023-05-19T10:50:01.873Z,36.10
2023-05-19T10:51:04.865Z,34.75
2023-05-19T10:52:21.565Z,34.77
2023-05-19T10:53:31.214Z,34.75
2023-05-19T10:54:40.914Z,33.57
2023-05-19T10:55:53.830Z,34.59
2023-05-19T10:56:56.855Z,35.52
2023-05-19T10:57:59.060Z,38.14
2023-05-19T10:59:04.210Z,38.78
2023-05-19T11:00:30.170Z,40.34
2023-05-19T11:01:34.054Z,43.74
2023-05-19T11:02:44.191Z,43.09
2023-05-19T11:03:52.387Z,43.80
2023-05-19T11:04:58.443Z,43.45
2023-05-19T11:06:29.811Z,39.72
2023-05-19T11:07:32.084Z,39.47
2023-05-19T11:08:35.075Z,38.98
2023-05-19T11:09:41.159Z,37.13
2023-05-19T11:10:46.466Z,37.53
2023-05-19T11:11:50.120Z,38.28
2023-05-19T11:12:52.409Z,37.48
2023-05-19T11:13:55.513Z,37.16
2023-05-19T11:14:58.337Z,35.45
2023-05-19T11:16:07.710Z,34.60
2023-05-19T11:17:15.319Z,32.96
2023-05-19T11:18:17.555Z,32.06
2023-05-19T11:19:30.432Z,31.97
2023-05-19T11:20:35.075Z,32.61
2023-05-19T11:21:43.738Z,33.83
2023-05-19T11:23:01.630Z,35.89
2023-05-19T11:24:08.527Z,37.87
2023-05-19T11:25:10.824Z,38.35
2023-05-19T11:26:13.243Z,40.33
2023-05-19T11:27:34.906Z,39.76
2023-05-19T11:28:37.294Z,38.31
2023-05-19T11:29:39.505Z,36.78
2023-05-19T11:30:42.860Z,35.74
2023-05-19T11:31:45.184Z,34.47
2023-05-19T11:32:48.226Z,32.93
2023-05-19T11:33:50.698Z,34.82
2023-05-19T11:34:53.225Z,34.86
2023-05-19T11:35:59.895Z,35.78
2023-05-19T11:37:02.143Z,37.15
2023-05-19T11:38:04.357Z,37.88
2023-05-19T11:39:06.700Z,37.96
2023-05-19T11:40:09.350Z,38.20
2023-05-19T11:41:11.511Z,39.31
2023-05-19T11:42:13.757Z,42.17
2023-05-19T11:43:16.816Z,42.34
2023-05-19T11:44:18.960Z,42.74
2023-05-19T11:45:28.244Z,43.72
2023-05-19T11:46:32.176Z,41.72
2023-05-19T11:47:45.966Z,38.25
2023-05-19T11:48:54.759Z,35.29
2023-05-19T11:49:56.962Z,35.30
2023-05-19T11:51:00.525Z,36.66
2023-05-19T11:52:03.710Z,34.76
2023-05-19T11:53:05.887Z,34.31
2023-05-19T11:54:08.391Z,34.38
2023-05-19T11:55:15.814Z,34.21
2023-05-19T11:56:17.999Z,33.66
2023-05-19T11:57:21.082Z,33.80
2023-05-19T11:58:28.939Z,32.29
2023-05-19T11:59:36.026Z,32.02
2023-05-19T12:00:40.772Z,32.58
2023-05-19T12:01:43.302Z,31.62
2023-05-19T12:02:45.670Z,31.81
2023-05-19T12:03:49.814Z,30.93
2023-05-19T12:04:52.412Z,32.68
2023-05-19T12:05:54.697Z,31.77
2023-05-19T12:06:56.921Z,32.05
2023-05-19T12:08:01.004Z,33.18
2023-05-19T12:09:05.576Z,31.94
2023-05-19T12:10:09.086Z,31.73
2023-05-19T12:11:11.528Z,32.07
2023-05-19T12:12:17.026Z,31.83
2023-05-19T12:13:19.712Z,32.32
2023-05-19T12:14:22.005Z,32.06
2023-05-19T12:15:24.861Z,31.66
2023-05-19T12:16:36.137Z,31.17
2023-05-19T12:17:38.356Z,31.37
2023-05-19T12:18:40.575Z,32.62
2023-05-19T12:19:47.244Z,33.89
2023-05-19T12:20:49.623Z,34.63
2023-05-19T12:21:55.196Z,32.98
2023-05-19T12:22:57.882Z,32.52
2023-05-19T12:24:00.175Z,32.92
2023-05-19T12:25:02.748Z,34.47
2023-05-19T12:26:05.062Z,35.62
2023-05-19T12:27:20.429Z,33.16
2023-05-19T12:28:22.660Z,32.84
2023-05-19T12:29:29.036Z,32.44
2023-05-19T12:30:33.138Z,31.74
2023-05-19T12:31:36.086Z,32.63
2023-05-19T12:32:38.629Z,33.09
2023-05-19T12:33:40.828Z,33.29
2023-05-19T12:34:43.035Z,32.78
2023-05-19T12:35:46.444Z,32.12
2023-05-19T12:36:48.778Z,31.96
2023-05-19T12:37:51.500Z,31.69
2023-05-19T12:38:54.952Z,30.03
2023-05-19T12:39:57.752Z,30.90
2023-05-19T12:41:00.220Z,29.58
2023-05-19T12:42:14.993Z,29.20
2023-05-19T12:43:22.194Z,29.29
2023-05-19T12:44:25.010Z,28.73
2023-05-19T12:45:28.332Z,29.22
2023-05-19T12:46:33.084Z,29.06
2023-05-19T12:47:35.929Z,29.77
2023-05-19T12:48:44.995Z,30.18
2023-05-19T12:50:10.306Z,30.75
2023-05-19T12:51:19.654Z,30.68
2023-05-19T12:52:23.375Z,31.56
2023-05-19T12:53:27.466Z,32.29
2023-05-19T12:54:35.593Z,32.28
2023-05-19T12:55:45.746Z,31.96
2023-05-19T12:56:52.028Z,31.60
2023-05-19T12:57:58.151Z,31.84
2023-05-19T12:59:01.718Z,31.03
2023-05-19T13:00:33.329Z,30.77
2023-05-19T13:01:36.645Z,31.02
2023-05-19T13:02:59.948Z,30.02
2023-05-19T13:04:05.412Z,30.28
2023-05-19T13:05:08.775Z,31.10
2023-05-19T13:06:11.804Z,31.67
2023-05-19T13:07:14.094Z,30.44
2023-05-19T13:08:20.144Z,31.91
2023-05-19T13:09:22.546Z,34.07
2023-05-19T13:10:27.237Z,35.20
2023-05-19T13:11:30.036Z,34.75
2023-05-19T13:12:32.258Z,34.73
2023-05-19T13:13:34.467Z,33.62
2023-05-19T13:14:37.707Z,32.00
2023-05-19T13:15:44.608Z,33.07
2023-05-19T13:16:47.342Z,32.20
2023-05-19T13:17:49.597Z,29.69
2023-05-19T13:18:51.792Z,28.92
2023-05-19T13:19:54.108Z,29.22
2023-05-19T13:20:56.416Z,29.99
2023-05-19T13:21:58.850Z,31.23
2023-05-19T13:23:01.644Z,32.48
2023-05-19T13:24:05.051Z,30.36
2023-05-19T13:25:07.712Z,30.54
2023-05-19T13:26:11.646Z,30.29
2023-05-19T13:27:13.768Z,31.65
2023-05-19T13:28:15.944Z,31.89
2023-05-19T13:29:18.088Z,32.62
2023-05-19T13:30:21.971Z,34.12
2023-05-19T13:31:24.169Z,34.24
2023-05-19T13:32:26.386Z,34.59
2023-05-19T13:33:28.593Z,36.82
2023-05-19T13:34:30.778Z,37.57
2023-05-19T13:35:37.377Z,37.98
2023-05-19T13:36:40.134Z,39.70
2023-05-19T13:37:42.574Z,38.66
2023-05-19T13:38:44.780Z,38.30
2023-05-19T13:39:47.075Z,38.34
2023-05-19T13:40:49.272Z,38.74
2023-05-19T13:41:51.452Z,39.35
2023-05-19T13:42:53.579Z,38.31
2023-05-19T13:43:59.390Z,37.64
2023-05-19T13:45:01.956Z,36.62
2023-05-19T13:46:04.450Z,35.08
2023-05-19T13:47:06.708Z,34.10